Time;durP1;ratioP1;P1;durP2;ratioP2;P2;SDS_P1;SDS_P2;PMS_P1;PMS_P2;Temp;Humidity;BMP_temperature;BMP_pressure;BME280_temperature;BME280_humidity;BME280_pressure;Samples;Min_cycle;Max_cycle;Signal;HPM_P1;HPM_P2
2023/01/31 00:01:59;;;;;;;30.23;18.77;;;2.30;99.90;;;;;;5016941;28;20471;-72
2023/01/31 00:04:25;;;;;;;25.58;17.88;;;2.30;99.90;;;;;;5016471;28;20202;-71
2023/01/31 00:06:52;;;;;;;26.52;19.00;;;2.30;99.90;;;;;;5018386;28;20029;-71
2023/01/31 00:09:19;;;;;;;39.25;25.27;;;2.40;99.90;;;;;;5015656;28;20026;-71
2023/01/31 00:11:44;;;;;;;23.20;16.80;;;2.40;99.90;;;;;;5018305;28;20021;-71
2023/01/31 00:14:17;;;;;;;53.08;32.25;;;2.40;99.90;;;;;;5017626;28;20033;-70
2023/01/31 00:16:42;;;;;;;61.88;34.95;;;2.40;99.90;;;;;;5007803;28;20025;-70
2023/01/31 00:19:08;;;;;;;56.58;33.35;;;2.40;99.90;;;;;;5017625;28;20040;-70
2023/01/31 00:21:34;;;;;;;137.57;64.90;;;2.50;99.90;;;;;;5017963;28;20037;-70
2023/01/31 00:24:00;;;;;;;57.05;32.65;;;2.50;99.90;;;;;;5018448;28;20123;-70
2023/01/31 00:26:28;;;;;;;22.85;16.90;;;2.50;99.90;;;;;;5017835;28;20401;-71
2023/01/31 00:28:55;;;;;;;43.45;25.10;;;2.50;99.90;;;;;;5017181;28;20041;-71
2023/01/31 00:31:23;;;;;;;22.50;16.33;;;2.50;99.90;;;;;;5015809;28;20031;-71
2023/01/31 00:33:51;;;;;;;230.77;109.55;;;2.50;99.90;;;;;;5018022;28;20032;-70
2023/01/31 00:36:25;;;;;;;26.52;17.80;;;2.50;99.90;;;;;;5014387;28;20017;-71
2023/01/31 00:38:53;;;;;;;30.27;20.13;;;2.60;99.90;;;;;;5016213;28;20418;-71
2023/01/31 00:41:20;;;;;;;27.67;16.95;;;2.50;99.90;;;;;;5013272;28;20536;-71
2023/01/31 00:43:46;;;;;;;122.68;61.00;;;2.50;99.90;;;;;;5018235;28;20026;-70
2023/01/31 00:46:11;;;;;;;24.92;16.42;;;2.60;99.90;;;;;;5013343;28;20026;-71
2023/01/31 00:48:37;;;;;;;72.93;39.85;;;2.50;99.90;;;;;;5018860;28;20030;-70
2023/01/31 00:51:04;;;;;;;33.33;23.02;;;2.50;99.90;;;;;;5012541;28;20033;-71
2023/01/31 00:53:29;;;;;;;25.33;18.65;;;2.50;99.90;;;;;;5018764;28;20018;-71
2023/01/31 00:56:03;;;;;;;25.88;18.40;;;2.50;99.90;;;;;;5011948;28;20391;-70
2023/01/31 00:58:29;;;;;;;32.63;23.58;;;2.60;99.90;;;;;;5016885;28;20022;-70
2023/01/31 01:00:54;;;;;;;19.10;14.73;;;2.50;99.90;;;;;;5012740;28;20030;-71
2023/01/31 01:03:20;;;;;;;19.88;15.27;;;2.60;99.90;;;;;;5015510;28;20017;-71
2023/01/31 01:05:45;;;;;;;21.10;15.68;;;2.50;99.90;;;;;;5006284;28;20027;-71
2023/01/31 01:08:11;;;;;;;23.60;18.05;;;2.60;99.90;;;;;;5016403;28;20496;-71
2023/01/31 01:10:37;;;;;;;24.83;18.73;;;2.60;99.90;;;;;;5009342;28;20030;-70
2023/01/31 01:13:04;;;;;;;19.42;14.40;;;2.60;99.90;;;;;;5016228;28;20022;-71
2023/01/31 01:15:30;;;;;;;23.05;17.50;;;2.60;99.90;;;;;;5014851;28;20109;-71
2023/01/31 01:17:56;;;;;;;19.67;14.00;;;2.70;99.90;;;;;;5016734;28;20053;-70
2023/01/31 01:20:22;;;;;;;22.90;15.10;;;2.70;99.90;;;;;;5016470;28;20029;-70
2023/01/31 01:22:48;;;;;;;19.63;14.30;;;2.60;99.90;;;;;;5018209;28;20068;-70
2023/01/31 01:25:13;;;;;;;20.60;14.32;;;2.70;99.90;;;;;;5016812;28;20502;-70
2023/01/31 01:27:39;;;;;;;18.92;14.73;;;2.70;99.90;;;;;;5018040;28;20021;-71
2023/01/31 01:30:06;;;;;;;19.95;14.75;;;2.70;99.90;;;;;;5013329;28;20026;-71
2023/01/31 01:32:32;;;;;;;18.10;14.90;;;2.70;99.90;;;;;;5014909;28;20026;-71
2023/01/31 01:34:57;;;;;;;15.65;12.75;;;2.70;99.90;;;;;;5012049;28;20037;-71
2023/01/31 01:37:23;;;;;;;20.92;15.57;;;2.80;99.90;;;;;;5017938;28;20060;-70
2023/01/31 01:39:50;;;;;;;19.90;14.10;;;2.80;99.90;;;;;;5011832;28;20037;-70
2023/01/31 01:42:21;;;;;;;18.63;13.48;;;2.80;99.90;;;;;;5016803;28;20538;-71
2023/01/31 01:44:56;;;;;;;12.98;11.60;;;2.80;99.90;;;;;;5011656;28;20037;-70
2023/01/31 01:47:31;;;;;;;19.50;14.40;;;2.80;99.90;;;;;;5017315;28;20081;-71
2023/01/31 01:50:24;;;;;;;21.50;16.33;;;2.80;99.90;;;;;;5011445;28;20034;-71
2023/01/31 01:53:15;;;;;;;19.08;14.05;;;2.80;99.90;;;;;;5016311;28;20061;-70
2023/01/31 01:55:46;;;;;;;;;;;2.80;99.90;;;;;;5013286;28;20050;-71
2023/01/31 01:58:35;;;;;;;16.85;12.77;;;2.80;99.90;;;;;;5011951;28;20285;-71
2023/01/31 02:01:03;;;;;;;18.63;14.07;;;2.90;99.90;;;;;;5013935;28;20044;-71
2023/01/31 02:03:29;;;;;;;20.52;14.55;;;2.90;99.90;;;;;;5015950;28;20033;-70
2023/01/31 02:05:59;;;;;;;18.33;14.45;;;2.90;99.90;;;;;;5013231;28;20042;-71
2023/01/31 02:08:28;;;;;;;19.03;14.60;;;2.90;99.90;;;;;;5016292;28;20082;-71
2023/01/31 02:11:16;;;;;;;21.63;16.42;;;2.90;99.90;;;;;;5014833;28;20022;-71
2023/01/31 02:13:42;;;;;;;19.55;13.82;;;2.90;99.90;;;;;;5016878;28;20032;-70
2023/01/31 02:16:09;;;;;;;16.45;13.07;;;2.90;99.90;;;;;;5015321;28;20104;-71
2023/01/31 02:18:34;;;;;;;16.48;13.73;;;2.90;99.90;;;;;;5017504;28;20030;-71
2023/01/31 02:21:06;;;;;;;19.25;14.32;;;2.90;99.90;;;;;;5015389;28;20605;-71
2023/01/31 02:23:47;;;;;;;24.52;15.23;;;2.90;99.90;;;;;;5017449;28;20052;-71
2023/01/31 02:26:12;;;;;;;20.50;13.68;;;2.90;99.90;;;;;;5011263;28;20022;-71
2023/01/31 02:28:38;;;;;;;20.33;14.15;;;2.90;99.90;;;;;;5017307;28;20056;-71
2023/01/31 02:31:15;;;;;;;16.58;13.20;;;3.00;99.90;;;;;;5011384;28;20022;-71
2023/01/31 02:33:58;;;;;;;16.45;13.45;;;3.00;99.90;;;;;;5016794;28;20030;-71
2023/01/31 02:36:30;;;;;;;16.48;13.30;;;3.00;99.90;;;;;;5011437;28;20018;-71
2023/01/31 02:39:21;;;;;;;16.45;12.95;;;3.10;99.90;;;;;;5015169;28;20051;-71
2023/01/31 02:42:05;;;;;;;16.95;13.70;;;3.00;99.90;;;;;;5014009;28;20083;-71
2023/01/31 02:45:00;;;;;;;16.15;14.43;;;3.00;99.90;;;;;;5020658;28;20560;-71
2023/01/31 02:47:42;;;;;;;19.10;13.23;;;3.00;99.90;;;;;;5015208;28;20049;-71
2023/01/31 02:50:29;;;;;;;14.80;13.25;;;3.00;99.90;;;;;;5010711;28;20490;-71
2023/01/31 02:53:02;;;;;;;15.85;12.52;;;3.00;99.90;;;;;;5015541;28;20133;-71
2023/01/31 02:58:25;;;;;;;18.70;12.25;;;3.00;99.90;;;;;;5014164;28;20044;-71
2023/01/31 03:00:55;;;;;;;19.50;13.73;;;3.00;99.90;;;;;;5014446;28;20037;-71
2023/01/31 03:03:25;;;;;;;17.67;14.27;;;3.00;99.90;;;;;;5013623;28;20414;-71
2023/01/31 03:06:10;;;;;;;18.45;13.18;;;3.00;99.90;;;;;;5012335;28;20042;-71
2023/01/31 03:08:39;;;;;;;17.17;12.75;;;3.00;99.90;;;;;;5016736;28;20022;-71
2023/01/31 03:11:07;;;;;;;16.80;12.77;;;3.00;99.90;;;;;;5015621;28;20037;-71
2023/01/31 03:13:35;;;;;;;16.10;12.18;;;3.00;99.90;;;;;;5020943;28;20014;-71
2023/01/31 03:19:12;;;;;;;19.40;13.10;;;2.90;99.90;;;;;;5019152;28;20041;-71
2023/01/31 03:21:54;;;;;;;16.55;13.35;;;2.80;99.90;;;;;;5012309;28;20030;-71
2023/01/31 03:24:25;;;;;;;16.92;11.65;;;2.70;99.90;;;;;;5013040;28;20034;-71
2023/01/31 03:26:52;;;;;;;20.67;13.02;;;2.60;99.90;;;;;;5016946;28;20498;-71
2023/01/31 03:29:18;;;;;;;17.58;14.57;;;2.60;99.90;;;;;;5017363;28;20029;-71
2023/01/31 03:32:16;;;;;;;22.20;14.25;;;2.50;99.90;;;;;;5016006;28;20018;-71
2023/01/31 03:34:42;;;;;;;19.20;13.52;;;2.40;99.90;;;;;;4991788;28;20522;-71
2023/01/31 03:37:26;;;;;;;18.50;14.13;;;2.30;99.90;;;;;;5020173;28;20087;-71
2023/01/31 03:40:16;;;;;;;15.85;14.05;;;2.30;99.90;;;;;;5014123;28;20541;-71
2023/01/31 03:42:46;;;;;;;22.60;15.00;;;2.20;99.90;;;;;;5009587;28;20109;-71
2023/01/31 03:45:20;;;;;;;17.37;14.03;;;2.20;99.90;;;;;;5013698;28;20062;-71
2023/01/31 03:47:48;;;;;;;18.58;14.63;;;2.10;99.90;;;;;;5020333;28;20288;-71
2023/01/31 03:50:37;;;;;;;23.48;15.13;;;2.10;99.90;;;;;;5012803;28;20026;-71
2023/01/31 03:53:10;;;;;;;17.50;14.10;;;2.00;99.90;;;;;;5020136;28;20457;-71
2023/01/31 03:55:40;;;;;;;17.80;13.88;;;1.90;99.90;;;;;;5015351;28;20053;-71
2023/01/31 03:58:09;;;;;;;20.83;15.63;;;1.90;99.90;;;;;;5019705;28;20032;-71
2023/01/31 04:00:37;;;;;;;23.83;14.98;;;1.80;99.90;;;;;;5017962;28;20034;-70
2023/01/31 04:03:20;;;;;;;19.40;15.05;;;1.80;99.90;;;;;;5018359;28;20372;-71
2023/01/31 04:05:47;;;;;;;23.45;15.30;;;1.80;99.90;;;;;;5017029;28;20121;-71
2023/01/31 04:08:13;;;;;;;18.90;14.90;;;1.70;99.90;;;;;;5019426;28;20018;-71
2023/01/31 04:10:40;;;;;;;20.63;14.80;;;1.70;99.90;;;;;;5017781;28;20029;-71
2023/01/31 04:13:05;;;;;;;16.40;13.57;;;1.70;99.90;;;;;;5016510;28;20018;-71
2023/01/31 04:15:31;;;;;;;18.13;13.90;;;1.70;99.90;;;;;;5010158;28;20033;-71
2023/01/31 04:17:57;;;;;;;20.60;15.32;;;1.70;99.90;;;;;;5019557;28;20105;-71
2023/01/31 04:20:23;;;;;;;20.08;15.23;;;1.70;99.90;;;;;;5016850;28;20022;-71
2023/01/31 04:22:48;;;;;;;18.05;14.40;;;1.70;99.90;;;;;;5015661;28;20030;-71
2023/01/31 04:25:14;;;;;;;18.08;14.32;;;1.70;99.90;;;;;;5017540;28;20041;-71
2023/01/31 04:27:39;;;;;;;17.88;14.38;;;1.60;99.90;;;;;;5017893;28;20093;-71
2023/01/31 04:30:08;;;;;;;24.00;16.05;;;1.70;99.90;;;;;;5013632;28;20038;-72
2023/01/31 04:32:34;;;;;;;23.02;15.52;;;1.70;99.90;;;;;;5017897;28;20097;-71
2023/01/31 04:34:59;;;;;;;21.45;16.25;;;1.70;99.90;;;;;;5013010;28;20053;-71
2023/01/31 04:37:25;;;;;;;18.65;14.93;;;1.70;99.90;;;;;;5019132;28;20390;-71
2023/01/31 04:39:51;;;;;;;18.65;14.32;;;1.80;99.90;;;;;;5012093;28;20026;-71
2023/01/31 04:42:16;;;;;;;21.95;15.55;;;1.80;99.90;;;;;;5018982;28;20092;-71
2023/01/31 04:44:42;;;;;;;20.50;15.48;;;1.90;99.90;;;;;;5013261;28;20033;-71
2023/01/31 04:47:08;;;;;;;16.75;13.98;;;2.00;99.90;;;;;;5018307;28;20018;-71
2023/01/31 04:49:33;;;;;;;17.27;14.18;;;2.10;99.90;;;;;;5014548;28;20030;-71
2023/01/31 04:51:59;;;;;;;21.35;14.57;;;2.20;99.90;;;;;;5017312;28;20046;-71
2023/01/31 04:54:25;;;;;;;20.23;14.85;;;2.20;99.90;;;;;;5015643;28;20068;-71
2023/01/31 04:56:50;;;;;;;21.20;14.13;;;2.20;99.90;;;;;;5013646;28;20022;-71
2023/01/31 04:59:16;;;;;;;19.58;14.93;;;2.30;99.90;;;;;;5015012;28;20069;-71
2023/01/31 05:01:42;;;;;;;19.42;15.45;;;2.30;99.90;;;;;;5016331;28;20064;-71
2023/01/31 05:04:08;;;;;;;18.52;15.70;;;2.30;99.90;;;;;;5016839;28;20026;-71
2023/01/31 05:06:33;;;;;;;17.75;13.95;;;2.30;99.90;;;;;;5016849;28;20025;-71
2023/01/31 05:09:00;;;;;;;18.50;14.75;;;2.40;99.90;;;;;;5016700;28;20517;-71
2023/01/31 05:11:27;;;;;;;21.48;14.65;;;2.40;99.90;;;;;;5017287;28;20033;-71
2023/01/31 05:13:52;;;;;;;18.52;14.65;;;2.40;99.90;;;;;;5016241;28;20029;-71
2023/01/31 05:16:18;;;;;;;18.02;13.82;;;2.40;99.90;;;;;;5008609;28;20026;-71
2023/01/31 05:18:44;;;;;;;17.88;14.07;;;2.40;99.90;;;;;;5016935;28;20030;-71
2023/01/31 05:21:10;;;;;;;21.40;15.38;;;2.50;99.90;;;;;;5016235;28;20021;-71
2023/01/31 05:23:36;;;;;;;20.25;14.90;;;2.50;99.90;;;;;;5017255;28;20085;-71
2023/01/31 05:26:02;;;;;;;17.25;14.32;;;2.50;99.90;;;;;;5010598;28;20037;-71
2023/01/31 05:28:28;;;;;;;16.33;14.00;;;2.60;99.90;;;;;;5017123;28;20025;-71
2023/01/31 05:31:01;;;;;;;18.58;14.57;;;2.60;99.90;;;;;;5016054;28;20108;-71
2023/01/31 05:33:26;;;;;;;18.73;14.07;;;2.60;99.90;;;;;;5016475;28;20026;-71
2023/01/31 05:35:52;;;;;;;20.55;14.30;;;2.60;99.90;;;;;;5011613;28;20128;-71
2023/01/31 05:38:18;;;;;;;17.63;13.25;;;2.70;99.90;;;;;;5017022;28;20033;-71
2023/01/31 05:40:43;;;;;;;21.83;14.57;;;2.70;99.90;;;;;;5011580;28;20049;-71
2023/01/31 05:43:09;;;;;;;17.98;13.88;;;2.70;99.90;;;;;;5017040;28;20093;-71
2023/01/31 05:45:35;;;;;;;18.30;14.75;;;2.70;99.90;;;;;;5011206;28;20425;-72
2023/01/31 05:48:00;;;;;;;18.77;13.80;;;2.70;99.90;;;;;;5018194;28;20382;-70
2023/01/31 05:50:26;;;;;;;18.90;13.77;;;2.70;99.90;;;;;;5011511;28;20034;-70
2023/01/31 05:52:54;;;;;;;17.63;14.40;;;2.80;99.90;;;;;;5017799;28;20046;-70
2023/01/31 05:55:20;;;;;;;17.85;14.20;;;2.80;99.90;;;;;;5012496;28;20030;-71
2023/01/31 05:57:46;;;;;;;19.38;13.32;;;2.80;99.90;;;;;;5012992;28;20022;-70
2023/01/31 06:00:13;;;;;;;16.58;13.60;;;2.90;99.90;;;;;;5013406;28;20041;-70
2023/01/31 06:02:40;;;;;;;18.73;13.13;;;2.90;99.90;;;;;;5015224;28;20044;-71
2023/01/31 06:05:06;;;;;;;33.70;19.73;;;2.90;99.90;;;;;;5015088;28;20084;-70
2023/01/31 06:07:32;;;;;;;18.58;13.68;;;3.00;99.90;;;;;;5015633;28;20022;-71
2023/01/31 06:09:59;;;;;;;20.42;14.65;;;3.00;99.90;;;;;;5013021;28;20490;-71
2023/01/31 06:12:25;;;;;;;18.45;13.88;;;3.00;99.90;;;;;;5009414;28;20030;-70
2023/01/31 06:14:50;;;;;;;16.15;12.77;;;3.10;99.90;;;;;;5014347;28;20596;-70
2023/01/31 06:17:16;;;;;;;16.33;13.63;;;3.20;99.90;;;;;;5009663;28;20406;-70
2023/01/31 06:19:42;;;;;;;15.88;12.68;;;3.10;99.90;;;;;;5014977;28;20065;-70
2023/01/31 06:22:08;;;;;;;27.17;20.77;;;3.10;99.90;;;;;;5014494;28;20083;-72
2023/01/31 06:24:33;;;;;;;22.90;14.68;;;3.10;99.90;;;;;;5015549;28;20030;-71
2023/01/31 06:26:59;;;;;;;19.52;12.80;;;3.00;99.90;;;;;;5011670;28;20022;-71
2023/01/31 06:29:25;;;;;;;24.48;17.73;;;3.10;99.90;;;;;;5012864;28;20036;-71
2023/01/31 06:31:52;;;;;;;22.10;14.55;;;3.00;99.90;;;;;;5012602;28;20033;-70
2023/01/31 06:34:18;;;;;;;17.08;13.77;;;3.00;99.90;;;;;;5014788;28;20402;-70
2023/01/31 06:36:44;;;;;;;25.25;17.25;;;2.90;99.90;;;;;;5013353;28;20030;-70
2023/01/31 06:39:14;;;;;;;20.60;13.95;;;3.00;99.90;;;;;;5015121;28;20113;-70
2023/01/31 06:41:40;;;;;;;22.42;15.75;;;2.90;99.90;;;;;;5010864;28;20086;-70
2023/01/31 06:44:06;;;;;;;19.45;15.10;;;3.00;99.90;;;;;;5013912;28;21107;-70
2023/01/31 06:46:32;;;;;;;18.63;14.38;;;3.00;99.90;;;;;;5011428;28;20109;-70
2023/01/31 06:48:58;;;;;;;21.30;14.88;;;3.00;99.90;;;;;;5014566;28;20022;-70
2023/01/31 06:53:52;;;;;;;19.30;15.55;;;2.90;99.90;;;;;;5017772;28;20421;-70
2023/01/31 06:56:20;;;;;;;22.73;17.30;;;2.90;99.90;;;;;;5021763;28;20022;-70
2023/01/31 06:58:46;;;;;;;18.33;14.82;;;2.90;99.90;;;;;;5017272;28;20030;-70
2023/01/31 07:01:13;;;;;;;26.92;19.00;;;2.90;99.90;;;;;;5017293;28;20053;-69
2023/01/31 07:03:39;;;;;;;106.10;52.72;;;2.90;99.90;;;;;;5017311;28;20048;-70
2023/01/31 07:06:10;;;;;;;44.92;29.52;;;2.90;99.90;;;;;;5017314;28;20516;-69
2023/01/31 07:08:36;;;;;;;23.15;16.98;;;2.90;99.90;;;;;;5017371;28;20370;-69
2023/01/31 07:11:03;;;;;;;31.90;23.33;;;2.90;99.90;;;;;;5017094;28;20022;-70
2023/01/31 07:13:32;;;;;;;21.58;17.77;;;2.90;99.90;;;;;;5015669;28;20108;-70
2023/01/31 07:15:57;;;;;;;21.58;16.40;;;2.90;99.90;;;;;;5016647;28;20402;-70
2023/01/31 07:18:23;;;;;;;23.10;16.45;;;2.90;99.90;;;;;;5015900;28;20029;-70
2023/01/31 07:20:52;;;;;;;20.92;16.15;;;2.80;99.90;;;;;;5011765;28;20030;-70
2023/01/31 07:23:20;;;;;;;20.15;16.17;;;2.80;99.90;;;;;;5014864;28;20022;-70
2023/01/31 07:25:47;;;;;;;23.40;16.35;;;2.80;99.90;;;;;;5015427;28;20375;-70
2023/01/31 07:28:15;;;;;;;21.90;17.40;;;2.80;99.90;;;;;;5014104;28;20405;-71
2023/01/31 07:30:42;;;;;;;25.15;18.73;;;2.80;99.90;;;;;;5014809;28;20529;-70
2023/01/31 07:33:09;;;;;;;53.60;39.25;;;2.80;99.90;;;;;;5015181;28;20018;-71
2023/01/31 07:35:35;;;;;;;20.52;16.55;;;2.80;99.90;;;;;;5015169;28;20018;-71
2023/01/31 07:38:03;;;;;;;23.05;18.15;;;2.80;99.90;;;;;;5012351;28;20073;-71
2023/01/31 07:40:28;;;;;;;165.55;92.90;;;2.90;99.90;;;;;;5012696;28;20034;-70
2023/01/31 07:43:00;;;;;;;23.30;15.88;;;2.90;99.90;;;;;;5014162;28;20030;-71
2023/01/31 07:45:26;;;;;;;158.88;87.75;;;2.90;99.90;;;;;;5015070;28;20037;-70
2023/01/31 07:47:56;;;;;;;26.40;18.75;;;2.90;99.90;;;;;;5015886;28;20029;-71
2023/01/31 07:50:21;;;;;;;46.35;27.80;;;3.00;99.90;;;;;;5016029;28;20041;-70
2023/01/31 07:52:50;;;;;;;20.02;15.90;;;3.00;99.90;;;;;;5014999;28;20037;-71
2023/01/31 07:55:15;;;;;;;22.20;14.88;;;3.10;99.90;;;;;;5015255;28;20074;-70
2023/01/31 07:57:41;;;;;;;18.45;14.38;;;3.10;99.90;;;;;;5019194;28;20030;-70
2023/01/31 08:03:31;;;;;;;224.48;73.15;;;3.20;99.90;;;;;;5017687;28;20029;-70
2023/01/31 08:06:08;;;;;;;44.50;20.17;;;3.30;99.90;;;;;;5019019;28;20079;-70
2023/01/31 08:08:39;;;;;;;19.40;14.95;;;3.30;99.90;;;;;;5019048;28;20108;-70
2023/01/31 08:11:06;;;;;;;35.65;24.23;;;3.40;99.90;;;;;;5018227;28;20034;-70
2023/01/31 08:13:34;;;;;;;16.60;12.88;;;3.40;99.90;;;;;;5018689;28;20034;-70
2023/01/31 08:16:00;;;;;;;19.75;15.85;;;3.50;99.90;;;;;;5018293;28;20068;-70
2023/01/31 08:18:30;;;;;;;66.68;42.30;;;3.50;99.90;;;;;;5017859;28;20058;-72
2023/01/31 08:20:59;;;;;;;23.63;16.60;;;3.60;99.90;;;;;;5017723;28;20032;-71
2023/01/31 08:23:28;;;;;;;17.17;13.50;;;3.70;99.90;;;;;;5018247;28;20502;-71
2023/01/31 08:26:09;;;;;;;18.70;14.88;;;3.70;99.90;;;;;;5015134;28;20045;-71
2023/01/31 08:28:39;;;;;;;19.10;13.77;;;3.70;99.90;;;;;;5017884;28;20084;-71
2023/01/31 08:31:21;;;;;;;19.73;15.55;;;3.80;99.90;;;;;;5017715;28;20029;-71
2023/01/31 08:33:51;;;;;;;19.55;15.77;;;3.80;99.90;;;;;;5018161;28;20030;-71
2023/01/31 08:36:30;;;;;;;19.13;13.05;;;3.90;99.90;;;;;;5018603;28;20372;-71
2023/01/31 08:38:56;;;;;;;18.63;14.43;;;4.00;99.90;;;;;;5018305;28;20038;-72
2023/01/31 08:41:25;;;;;;;20.45;14.13;;;4.10;99.90;;;;;;5016486;28;20029;-71
2023/01/31 08:43:56;;;;;;;18.77;13.85;;;4.10;99.90;;;;;;5018357;28;20044;-72
2023/01/31 08:46:24;;;;;;;13.88;12.10;;;4.20;99.90;;;;;;5018469;28;20386;-72
2023/01/31 08:48:50;;;;;;;15.45;11.77;;;4.30;99.90;;;;;;5016920;28;20022;-72
2023/01/31 08:51:16;;;;;;;17.20;13.98;;;4.40;99.90;;;;;;5016415;28;20490;-72
2023/01/31 08:53:50;;;;;;;18.35;13.57;;;4.50;99.90;;;;;;5015976;28;20030;-71
2023/01/31 08:56:18;;;;;;;18.35;12.50;;;4.50;99.90;;;;;;5018400;28;20471;-72
2023/01/31 08:58:44;;;;;;;17.35;13.82;;;4.60;99.90;;;;;;5018059;28;20030;-72
2023/01/31 09:01:14;;;;;;;27.67;14.35;;;4.80;99.90;;;;;;5016825;28;20056;-71
2023/01/31 09:03:41;;;;;;;18.70;12.07;;;4.80;99.90;;;;;;5016408;28;20518;-71
2023/01/31 09:06:11;;;;;;;16.45;12.18;;;4.90;99.90;;;;;;5017976;28;20030;-71
2023/01/31 09:08:37;;;;;;;14.82;11.73;;;4.90;99.90;;;;;;5015841;28;20022;-71
2023/01/31 09:11:03;;;;;;;20.33;13.30;;;4.90;99.90;;;;;;5017051;28;20097;-71
2023/01/31 09:13:29;;;;;;;19.15;12.90;;;5.00;99.90;;;;;;5017646;28;20025;-71
2023/01/31 09:15:59;;;;;;;17.08;12.85;;;5.10;99.90;;;;;;5017772;28;20026;-71
2023/01/31 09:18:25;;;;;;;13.82;11.40;;;5.10;99.90;;;;;;5014393;28;20033;-71
2023/01/31 09:20:51;;;;;;;22.33;12.60;;;5.20;99.90;;;;;;5016927;28;20041;-71
2023/01/31 09:23:18;;;;;;;13.35;10.57;;;5.30;99.90;;;;;;5017666;28;20037;-71
2023/01/31 09:25:51;;;;;;;12.38;9.95;;;5.30;99.90;;;;;;5017441;28;20022;-72
2023/01/31 09:28:17;;;;;;;17.55;11.35;;;5.40;99.90;;;;;;5017474;28;20113;-71
2023/01/31 09:30:42;;;;;;;21.25;11.13;;;5.50;99.90;;;;;;5016690;28;20041;-71
2023/01/31 09:33:08;;;;;;;16.27;12.13;;;5.60;99.90;;;;;;5017573;28;20025;-72
2023/01/31 09:35:33;;;;;;;21.15;12.18;;;5.70;99.90;;;;;;5017354;28;20049;-71
2023/01/31 09:37:59;;;;;;;18.38;11.30;;;5.80;99.90;;;;;;5016989;28;20545;-71
2023/01/31 09:40:30;;;;;;;13.65;11.18;;;5.90;99.90;;;;;;5017105;28;20410;-71
2023/01/31 09:42:57;;;;;;;14.60;10.90;;;5.90;99.90;;;;;;5017270;28;20034;-71
2023/01/31 09:45:32;;;;;;;13.68;11.40;;;6.00;99.90;;;;;;5017080;28;20034;-71
2023/01/31 09:48:00;;;;;;;14.82;11.80;;;6.00;99.90;;;;;;5014023;28;20026;-71
2023/01/31 09:50:55;;;;;;;16.83;12.60;;;5.90;99.90;;;;;;5017095;28;20030;-71
2023/01/31 09:53:24;;;;;;;13.93;12.20;;;5.70;99.90;;;;;;5019251;28;20091;-71
2023/01/31 09:56:08;;;;;;;17.55;12.60;;;5.70;99.90;;;;;;5017093;28;20042;-71
2023/01/31 09:58:55;;;;;;;14.27;11.32;;;5.80;99.90;;;;;;5015508;28;20026;-71
2023/01/31 10:01:44;;;;;;;19.35;12.70;;;6.00;99.90;;;;;;5015961;28;20026;-71
2023/01/31 10:04:42;;;;;;;15.27;10.65;;;6.10;99.90;;;;;;5015249;28;20033;-71
2023/01/31 10:07:19;;;;;;;10.68;9.43;;;6.30;99.90;;;;;;5013773;28;20072;-71
2023/01/31 10:10:03;;;;;;;11.80;10.10;;;6.30;99.90;;;;;;5015510;28;20419;-71
2023/01/31 10:12:52;;;;;;;18.90;10.40;;;6.50;99.90;;;;;;5012918;28;20033;-71
2023/01/31 10:15:37;;;;;;;12.73;10.00;;;6.40;99.90;;;;;;5015484;28;20068;-71
2023/01/31 10:18:11;;;;;;;12.25;10.10;;;6.60;99.90;;;;;;5014956;28;20029;-71
2023/01/31 10:20:51;;;;;;;16.48;9.85;;;6.70;99.90;;;;;;5016126;28;20148;-72
2023/01/31 10:23:28;;;;;;;16.70;10.90;;;6.80;99.90;;;;;;5047004;28;20514;-72
2023/01/31 10:26:00;;;;;;;12.65;9.73;;;6.90;99.90;;;;;;5016672;28;20089;-71
2023/01/31 10:28:35;;;;;;;12.27;9.57;;;6.90;99.90;;;;;;5015237;28;20072;-72
2023/01/31 10:31:24;;;;;;;11.05;9.13;;;7.00;99.90;;;;;;5013984;28;20506;-71
2023/01/31 10:34:02;;;;;;;10.63;8.63;;;7.00;99.90;;;;;;5014754;28;20034;-70
2023/01/31 10:36:50;;;;;;;13.68;7.65;;;7.00;99.90;;;;;;5016566;28;20030;-71
2023/01/31 10:39:34;;;;;;;11.73;8.13;;;7.00;99.90;;;;;;5016294;28;20029;-71
2023/01/31 10:42:14;;;;;;;11.80;7.53;;;7.10;99.90;;;;;;5012360;28;20026;-71
2023/01/31 10:45:01;;;;;;;10.27;7.30;;;7.20;99.90;;;;;;5015739;28;20017;-70
2023/01/31 10:47:35;;;;;;;6.45;5.85;;;7.30;99.90;;;;;;5012709;28;20026;-70
2023/01/31 10:50:13;;;;;;;9.10;6.03;;;7.50;99.90;;;;;;5014582;28;20523;-71
2023/01/31 10:52:57;;;;;;;6.43;5.45;;;7.50;99.90;;;;;;5015274;28;20064;-71
2023/01/31 10:55:51;;;;;;;6.25;5.40;;;7.50;99.90;;;;;;5015588;28;20049;-72
2023/01/31 10:58:21;;;;;;;7.60;6.25;;;7.50;99.90;;;;;;5014966;28;20030;-71
2023/01/31 11:00:47;;;;;;;8.70;5.63;;;7.50;99.90;;;;;;5014318;28;20089;-72
2023/01/31 11:03:13;;;;;;;6.70;6.00;;;7.60;99.90;;;;;;5015828;28;20026;-71
2023/01/31 11:05:48;;;;;;;5.47;4.97;;;7.60;99.90;;;;;;5014807;28;20084;-71
2023/01/31 11:08:32;;;;;;;4.93;4.35;;;7.70;99.90;;;;;;5016154;28;20049;-71
2023/01/31 11:11:15;;;;;;;4.53;4.13;;;7.80;99.90;;;;;;5015444;28;20022;-72
2023/01/31 11:14:04;;;;;;;4.85;4.45;;;7.70;99.90;;;;;;5015893;28;20053;-71
2023/01/31 11:16:34;;;;;;;7.55;4.60;;;7.80;99.90;;;;;;5014907;28;20053;-72
2023/01/31 11:19:03;;;;;;;5.40;4.80;;;7.80;99.90;;;;;;5016283;28;20068;-72
2023/01/31 11:21:31;;;;;;;8.93;5.40;;;7.90;99.90;;;;;;5012556;28;20030;-70
2023/01/31 11:24:05;;;;;;;6.70;6.00;;;7.90;99.90;;;;;;5014121;28;20030;-71
2023/01/31 11:26:37;;;;;;;6.90;4.93;;;8.00;99.90;;;;;;5009075;28;20113;-70
2023/01/31 11:29:16;;;;;;;5.57;5.07;;;8.10;99.90;;;;;;5012708;28;20026;-70
2023/01/31 11:31:44;;;;;;;7.22;4.85;;;8.10;99.90;;;;;;5014998;28;20022;-69
2023/01/31 11:34:32;;;;;;;5.95;4.80;;;8.20;99.90;;;;;;5014276;28;20085;-69
2023/01/31 11:37:13;;;;;;;5.47;4.97;;;8.20;99.90;;;;;;5013676;28;20052;-69
2023/01/31 11:39:39;;;;;;;5.75;5.20;;;8.30;99.90;;;;;;5015196;28;20084;-69
2023/01/31 11:42:06;;;;;;;7.13;4.90;;;8.30;99.90;;;;;;5014692;28;20025;-69
2023/01/31 11:44:32;;;;;;;5.68;4.63;;;8.40;99.90;;;;;;5016449;28;20157;-69
2023/01/31 11:47:03;;;;;;;8.63;5.53;;;8.50;99.90;;;;;;5015349;28;20060;-69
2023/01/31 11:49:39;;;;;;;7.90;5.32;;;8.60;99.90;;;;;;5001772;28;20030;-70
2023/01/31 11:52:27;;;;;;;7.10;5.30;;;8.60;99.90;;;;;;5013391;28;20017;-69
2023/01/31 11:55:04;;;;;;;28.88;5.60;;;8.70;99.90;;;;;;5018271;28;20067;-69
2023/01/31 11:57:38;;;;;;;9.52;5.55;;;8.80;99.90;;;;;;5017563;28;20036;-69
2023/01/31 12:00:21;;;;;;;6.30;5.70;;;8.90;99.90;;;;;;5016127;28;20053;-69
2023/01/31 12:02:59;;;;;;;12.18;6.80;;;9.00;99.90;;;;;;5016077;28;20033;-69
2023/01/31 12:05:35;;;;;;;7.53;5.88;;;9.10;99.90;;;;;;5018833;28;20080;-69
2023/01/31 12:08:01;;;;;;;6.97;5.57;;;9.50;99.90;;;;;;5015943;28;20061;-69
2023/01/31 12:10:32;;;;;;;5.35;4.85;;;9.80;99.90;;;;;;5018720;28;20774;-69
2023/01/31 12:13:20;;;;;;;5.72;4.65;;;10.00;99.90;;;;;;5015638;28;20560;-69
2023/01/31 12:16:01;;;;;;;4.40;4.00;;;10.20;99.90;;;;;;5017528;28;20037;-69
2023/01/31 12:18:43;;;;;;;3.75;3.40;;;10.30;99.90;;;;;;5014079;28;20075;-70
2023/01/31 12:21:14;;;;;;;5.95;4.50;;;10.40;99.90;;;;;;5014198;28;20033;-70
2023/01/31 12:24:10;;;;;;;5.00;4.47;;;10.60;99.90;;;;;;5016718;28;20026;-70
2023/01/31 12:26:47;;;;;;;6.47;4.82;;;10.50;99.90;;;;;;5012151;28;20022;-70
2023/01/31 12:29:40;;;;;;;6.32;5.45;;;10.50;99.90;;;;;;5018208;28;20038;-70
2023/01/31 12:32:30;;;;;;;5.88;4.18;;;10.50;99.90;;;;;;5012637;28;20038;-70
2023/01/31 12:35:20;;;;;;;7.75;5.20;;;10.50;99.90;;;;;;5018433;28;20032;-70
2023/01/31 12:38:03;;;;;;;6.15;3.72;;;10.40;99.90;;;;;;5014105;28;20446;-70
2023/01/31 12:40:43;;;;;;;4.10;3.70;;;10.50;99.90;;;;;;5014932;28;20056;-70
2023/01/31 12:43:16;;;;;;;4.13;3.70;;;10.40;99.90;;;;;;5013291;28;20033;-68
2023/01/31 12:46:16;;;;;;;5.20;4.60;;;10.30;99.90;;;;;;5014818;28;20117;-68
2023/01/31 12:48:57;;;;;;;6.47;5.73;;;10.30;99.90;;;;;;5016819;28;20034;-68
2023/01/31 12:51:44;;;;;;;8.35;4.90;;;10.30;99.90;;;;;;5013327;28;20077;-68
2023/01/31 12:54:28;;;;;;;6.30;5.43;;;10.30;99.90;;;;;;5016409;28;20093;-68
2023/01/31 12:57:22;;;;;;;5.57;5.00;;;10.30;99.90;;;;;;5015198;28;20045;-68
2023/01/31 13:00:10;;;;;;;6.13;4.70;;;10.30;99.90;;;;;;5015983;28;20021;-70
2023/01/31 13:03:06;;;;;;;6.90;4.18;;;10.20;99.90;;;;;;5013500;28;20041;-70
2023/01/31 13:05:41;;;;;;;5.97;3.97;;;10.10;99.90;;;;;;5015762;28;20164;-70
2023/01/31 13:08:16;;;;;;;6.15;3.83;;;10.00;99.90;;;;;;5015386;28;20033;-69
2023/01/31 13:11:04;;;;;;;4.10;3.70;;;10.00;99.90;;;;;;5015848;28;20022;-70
2023/01/31 13:13:36;;;;;;;5.63;4.20;;;10.00;99.90;;;;;;5014797;28;20038;-70
2023/01/31 13:16:20;;;;;;;5.70;4.28;;;10.00;99.90;;;;;;5015748;28;20553;-70